Aeroporto :
LOGIN :

Iscrizione | Disclaimer

   EN    FR    IT 

 










Sommario :    VFR   VFR Marginale   IFR   IFR Intensivo   IFR Molto Intensivo
Visibilità : 
Base nubi : 
>= 8 km
>= 3000ft
5 / 8 km
1000 / 3000 ft
1500m / 5 km
500 / 1000 ft
800 / 1500m
200 / 500 ft
< 800m
< 200 ft
Simboli :   Temporali  Nebbia  Neve Forte  Precipitazioni Forti  Vento > 20 kt
SIGMETs :   Varie  Temporali  Ghiacco  Turbolenza  Onda orograficha  Ceneri Vulcaniche






- Altitudine del aeroporto : 181 ft


ESIB - Satenas AB

ULTIMO METAR :
  • 101320Z AUTO 03007KT 9999 FEW084/// SCT220/// 17/11 Q1006

METARs OBSOLETI :
  • 101250Z AUTO 02008KT 350V050 9999 FEW080/// SCT160/// BKN200/// 17/12 Q1006
  • 101220Z AUTO 02007KT 360V060 9999 FEW037/// SCT220/// 17/11 Q1006
  • 101150Z AUTO 01006KT 320V050 9999 SCT082/// BKN190/// 17/12 Q1007
  • 101120Z AUTO 36005KT 9999 FEW033/// BKN072/// 16/12 Q1007
  • 101050Z AUTO 01005KT 9999 FEW043/// BKN080/// 16/12 Q1007

Previsioni scadute.



MetMap, La meteo Aeronautica in un colpo d'occhio ! - Copyright ORBIFLY Dicembre 2007 - Disclaimer

ORBIFLY MET'MAP TEAM :

Programmazione e sviluppo : Alexandra Zaïnal
Concezione : Baudouin d'Aumeries
Aiuto per la programmazione : Marc-Olivier Méhu
Supporto tecnico e logistico : Manuel Goepfert
Aiuto per la traduzione : Arnaldo La Scala

Contatto : metmap@orbifly.com




FONTI E CREDITI :

   NOAA